sensor_id;sensor_type;location;lat;lon;timestamp;temperature;humidity
20568;DHT22;10442;49.932;11.592;2024-02-23T00:01:15;12.60;70.30
20568;DHT22;10442;49.932;11.592;2024-02-23T00:03:42;12.50;70.70
20568;DHT22;10442;49.932;11.592;2024-02-23T00:06:11;12.50;70.60
20568;DHT22;10442;49.932;11.592;2024-02-23T00:08:39;12.40;70.50
20568;DHT22;10442;49.932;11.592;2024-02-23T00:11:08;12.40;70.50
20568;DHT22;10442;49.932;11.592;2024-02-23T00:13:36;12.40;70.40
20568;DHT22;10442;49.932;11.592;2024-02-23T00:16:04;12.40;70.40
20568;DHT22;10442;49.932;11.592;2024-02-23T00:18:32;12.30;70.20
20568;DHT22;10442;49.932;11.592;2024-02-23T00:20:59;12.30;70.20
20568;DHT22;10442;49.932;11.592;2024-02-23T00:23:26;12.30;70.00
20568;DHT22;10442;49.932;11.592;2024-02-23T00:25:55;12.30;69.90
20568;DHT22;10442;49.932;11.592;2024-02-23T00:28:23;12.20;69.80
20568;DHT22;10442;49.932;11.592;2024-02-23T00:30:50;12.20;69.50
20568;DHT22;10442;49.932;11.592;2024-02-23T00:33:18;12.20;69.80
20568;DHT22;10442;49.932;11.592;2024-02-23T00:35:45;12.10;69.70
20568;DHT22;10442;49.932;11.592;2024-02-23T00:38:13;12.20;69.70
20568;DHT22;10442;49.932;11.592;2024-02-23T00:40:40;12.10;69.40
20568;DHT22;10442;49.932;11.592;2024-02-23T00:43:07;12.10;69.00
20568;DHT22;10442;49.932;11.592;2024-02-23T00:45:35;12.10;69.30
20568;DHT22;10442;49.932;11.592;2024-02-23T00:48:02;12.10;69.00
20568;DHT22;10442;49.932;11.592;2024-02-23T00:50:30;12.00;68.80
20568;DHT22;10442;49.932;11.592;2024-02-23T00:52:57;12.00;68.60
20568;DHT22;10442;49.932;11.592;2024-02-23T00:55:25;12.00;68.70
20568;DHT22;10442;49.932;11.592;2024-02-23T00:57:53;12.00;68.00
20568;DHT22;10442;49.932;11.592;2024-02-23T01:00:21;12.00;68.10
20568;DHT22;10442;49.932;11.592;2024-02-23T01:02:48;11.90;68.10
20568;DHT22;10442;49.932;11.592;2024-02-23T01:05:17;12.00;68.30
20568;DHT22;10442;49.932;11.592;2024-02-23T01:07:46;12.00;68.10
20568;DHT22;10442;49.932;11.592;2024-02-23T01:10:13;11.90;67.90
20568;DHT22;10442;49.932;11.592;2024-02-23T01:12:41;11.90;68.10
20568;DHT22;10442;49.932;11.592;2024-02-23T01:15:08;11.90;67.60
20568;DHT22;10442;49.932;11.592;2024-02-23T01:17:37;11.90;67.20
20568;DHT22;10442;49.932;11.592;2024-02-23T01:20:07;11.80;67.50
20568;DHT22;10442;49.932;11.592;2024-02-23T01:22:34;11.80;67.90
20568;DHT22;10442;49.932;11.592;2024-02-23T01:25:01;11.90;67.90
20568;DHT22;10442;49.932;11.592;2024-02-23T01:27:29;11.90;67.80
20568;DHT22;10442;49.932;11.592;2024-02-23T01:29:56;11.80;67.50
20568;DHT22;10442;49.932;11.592;2024-02-23T01:32:24;11.80;67.20
20568;DHT22;10442;49.932;11.592;2024-02-23T01:34:51;11.80;67.20
20568;DHT22;10442;49.932;11.592;2024-02-23T01:37:19;11.80;66.70
20568;DHT22;10442;49.932;11.592;2024-02-23T01:39:50;11.80;67.00
20568;DHT22;10442;49.932;11.592;2024-02-23T01:42:17;11.70;66.60
20568;DHT22;10442;49.932;11.592;2024-02-23T01:44:45;11.70;66.30
20568;DHT22;10442;49.932;11.592;2024-02-23T01:47:13;11.70;66.30
20568;DHT22;10442;49.932;11.592;2024-02-23T01:49:42;11.60;66.20
20568;DHT22;10442;49.932;11.592;2024-02-23T01:52:09;11.60;65.90
20568;DHT22;10442;49.932;11.592;2024-02-23T01:54:37;11.60;66.20
20568;DHT22;10442;49.932;11.592;2024-02-23T01:57:04;11.50;66.80
20568;DHT22;10442;49.932;11.592;2024-02-23T01:59:52;11.50;66.50
20568;DHT22;10442;49.932;11.592;2024-02-23T02:02:21;11.40;65.90
20568;DHT22;10442;49.932;11.592;2024-02-23T02:04:49;11.30;65.80
20568;DHT22;10442;49.932;11.592;2024-02-23T02:07:16;11.30;65.50
20568;DHT22;10442;49.932;11.592;2024-02-23T02:09:45;11.20;66.10
20568;DHT22;10442;49.932;11.592;2024-02-23T02:12:12;11.20;66.80
20568;DHT22;10442;49.932;11.592;2024-02-23T02:14:40;11.10;66.50
20568;DHT22;10442;49.932;11.592;2024-02-23T02:17:07;11.10;66.00
20568;DHT22;10442;49.932;11.592;2024-02-23T02:19:35;11.10;66.50
20568;DHT22;10442;49.932;11.592;2024-02-23T02:22:02;11.00;65.60
20568;DHT22;10442;49.932;11.592;2024-02-23T02:24:29;11.00;65.70
20568;DHT22;10442;49.932;11.592;2024-02-23T02:26:57;11.00;66.20
20568;DHT22;10442;49.932;11.592;2024-02-23T02:29:24;10.90;65.80
20568;DHT22;10442;49.932;11.592;2024-02-23T02:31:51;10.90;66.00
20568;DHT22;10442;49.932;11.592;2024-02-23T02:34:20;10.90;66.30
20568;DHT22;10442;49.932;11.592;2024-02-23T02:36:47;10.90;65.70
20568;DHT22;10442;49.932;11.592;2024-02-23T02:39:15;10.80;65.00
20568;DHT22;10442;49.932;11.592;2024-02-23T02:41:43;10.70;64.40
20568;DHT22;10442;49.932;11.592;2024-02-23T02:44:12;10.70;64.70
20568;DHT22;10442;49.932;11.592;2024-02-23T02:46:41;10.70;64.80
20568;DHT22;10442;49.932;11.592;2024-02-23T02:49:08;10.60;64.30
20568;DHT22;10442;49.932;11.592;2024-02-23T02:51:36;10.60;64.20
20568;DHT22;10442;49.932;11.592;2024-02-23T02:54:03;10.60;64.40
20568;DHT22;10442;49.932;11.592;2024-02-23T02:56:30;10.50;64.50
20568;DHT22;10442;49.932;11.592;2024-02-23T02:58:58;10.50;64.30
20568;DHT22;10442;49.932;11.592;2024-02-23T03:01:25;10.50;64.50
20568;DHT22;10442;49.932;11.592;2024-02-23T03:03:53;10.50;64.80
20568;DHT22;10442;49.932;11.592;2024-02-23T03:06:22;10.50;64.40
20568;DHT22;10442;49.932;11.592;2024-02-23T03:08:49;10.40;64.80
20568;DHT22;10442;49.932;11.592;2024-02-23T03:11:17;10.40;65.00
20568;DHT22;10442;49.932;11.592;2024-02-23T03:13:45;10.40;65.20
20568;DHT22;10442;49.932;11.592;2024-02-23T03:16:16;10.40;65.00
20568;DHT22;10442;49.932;11.592;2024-02-23T03:18:43;10.40;65.40
20568;DHT22;10442;49.932;11.592;2024-02-23T03:21:11;10.30;65.40
20568;DHT22;10442;49.932;11.592;2024-02-23T03:23:38;10.30;65.50
20568;DHT22;10442;49.932;11.592;2024-02-23T03:26:07;10.30;65.80
20568;DHT22;10442;49.932;11.592;2024-02-23T03:28:35;10.30;65.80
20568;DHT22;10442;49.932;11.592;2024-02-23T03:31:03;10.30;66.00
20568;DHT22;10442;49.932;11.592;2024-02-23T03:33:31;10.30;66.30
20568;DHT22;10442;49.932;11.592;2024-02-23T03:36:01;10.20;66.20
20568;DHT22;10442;49.932;11.592;2024-02-23T03:38:28;10.20;66.30
20568;DHT22;10442;49.932;11.592;2024-02-23T03:40:59;10.10;66.30
20568;DHT22;10442;49.932;11.592;2024-02-23T03:43:26;10.10;66.50
20568;DHT22;10442;49.932;11.592;2024-02-23T03:45:56;10.10;66.60
20568;DHT22;10442;49.932;11.592;2024-02-23T03:48:24;10.00;66.80
20568;DHT22;10442;49.932;11.592;2024-02-23T03:50:51;10.10;67.10
20568;DHT22;10442;49.932;11.592;2024-02-23T03:53:19;10.00;67.00
20568;DHT22;10442;49.932;11.592;2024-02-23T03:55:46;10.00;67.10
20568;DHT22;10442;49.932;11.592;2024-02-23T03:58:15;10.00;67.40
20568;DHT22;10442;49.932;11.592;2024-02-23T04:00:43;10.00;67.30
20568;DHT22;10442;49.932;11.592;2024-02-23T04:03:11;10.00;67.20
20568;DHT22;10442;49.932;11.592;2024-02-23T04:05:38;9.90;66.90
20568;DHT22;10442;49.932;11.592;2024-02-23T04:08:06;9.90;67.10
20568;DHT22;10442;49.932;11.592;2024-02-23T04:10:34;9.90;67.20
20568;DHT22;10442;49.932;11.592;2024-02-23T04:13:01;9.90;67.10
20568;DHT22;10442;49.932;11.592;2024-02-23T04:15:29;9.90;67.10
20568;DHT22;10442;49.932;11.592;2024-02-23T04:17:56;9.90;66.90
20568;DHT22;10442;49.932;11.592;2024-02-23T04:20:23;9.90;66.90
20568;DHT22;10442;49.932;11.592;2024-02-23T04:22:51;9.90;66.80
20568;DHT22;10442;49.932;11.592;2024-02-23T04:25:18;9.90;66.80
20568;DHT22;10442;49.932;11.592;2024-02-23T04:27:46;9.90;66.90
20568;DHT22;10442;49.932;11.592;2024-02-23T04:30:13;9.90;66.80
20568;DHT22;10442;49.932;11.592;2024-02-23T04:32:41;9.90;66.70
20568;DHT22;10442;49.932;11.592;2024-02-23T04:35:09;9.90;66.60
20568;DHT22;10442;49.932;11.592;2024-02-23T04:37:36;9.90;66.50
20568;DHT22;10442;49.932;11.592;2024-02-23T04:40:04;9.90;66.20
20568;DHT22;10442;49.932;11.592;2024-02-23T04:42:33;9.90;66.30
20568;DHT22;10442;49.932;11.592;2024-02-23T04:45:02;9.90;66.40
20568;DHT22;10442;49.932;11.592;2024-02-23T04:47:29;9.90;66.10
20568;DHT22;10442;49.932;11.592;2024-02-23T04:49:57;9.90;66.10
20568;DHT22;10442;49.932;11.592;2024-02-23T04:52:25;9.90;66.20
20568;DHT22;10442;49.932;11.592;2024-02-23T04:54:52;10.00;66.30
20568;DHT22;10442;49.932;11.592;2024-02-23T04:57:20;9.90;66.20
20568;DHT22;10442;49.932;11.592;2024-02-23T04:59:47;9.90;66.10
20568;DHT22;10442;49.932;11.592;2024-02-23T05:02:14;9.90;66.00
20568;DHT22;10442;49.932;11.592;2024-02-23T05:04:43;9.90;66.20
20568;DHT22;10442;49.932;11.592;2024-02-23T05:07:11;9.90;66.40
20568;DHT22;10442;49.932;11.592;2024-02-23T05:09:38;9.90;66.10
20568;DHT22;10442;49.932;11.592;2024-02-23T05:12:08;9.90;65.90
20568;DHT22;10442;49.932;11.592;2024-02-23T05:14:37;9.90;65.90
20568;DHT22;10442;49.932;11.592;2024-02-23T05:17:05;9.80;65.90
20568;DHT22;10442;49.932;11.592;2024-02-23T05:19:32;9.70;66.40
20568;DHT22;10442;49.932;11.592;2024-02-23T05:22:00;9.70;67.10
20568;DHT22;10442;49.932;11.592;2024-02-23T05:24:27;9.60;67.50
20568;DHT22;10442;49.932;11.592;2024-02-23T05:26:55;9.60;67.50
20568;DHT22;10442;49.932;11.592;2024-02-23T05:29:22;9.50;66.90
20568;DHT22;10442;49.932;11.592;2024-02-23T05:31:52;9.40;67.00
20568;DHT22;10442;49.932;11.592;2024-02-23T05:34:20;9.40;66.90
20568;DHT22;10442;49.932;11.592;2024-02-23T05:36:48;9.40;66.90
20568;DHT22;10442;49.932;11.592;2024-02-23T05:39:17;9.40;67.30
20568;DHT22;10442;49.932;11.592;2024-02-23T05:41:45;9.30;66.30
20568;DHT22;10442;49.932;11.592;2024-02-23T05:44:13;9.30;65.80
20568;DHT22;10442;49.932;11.592;2024-02-23T05:46:42;9.20;65.20
20568;DHT22;10442;49.932;11.592;2024-02-23T05:49:10;9.10;65.00
20568;DHT22;10442;49.932;11.592;2024-02-23T05:51:37;9.10;65.00
20568;DHT22;10442;49.932;11.592;2024-02-23T05:54:05;9.00;65.10
20568;DHT22;10442;49.932;11.592;2024-02-23T05:56:33;8.90;65.40
20568;DHT22;10442;49.932;11.592;2024-02-23T05:59:01;8.90;65.70
20568;DHT22;10442;49.932;11.592;2024-02-23T06:01:29;8.90;65.70
20568;DHT22;10442;49.932;11.592;2024-02-23T06:03:57;8.90;65.80
20568;DHT22;10442;49.932;11.592;2024-02-23T06:06:25;8.90;65.90
20568;DHT22;10442;49.932;11.592;2024-02-23T06:08:53;8.90;66.00
20568;DHT22;10442;49.932;11.592;2024-02-23T06:11:21;8.90;65.80
20568;DHT22;10442;49.932;11.592;2024-02-23T06:13:51;8.80;65.80
20568;DHT22;10442;49.932;11.592;2024-02-23T06:16:19;8.80;65.90
20568;DHT22;10442;49.932;11.592;2024-02-23T06:18:46;8.80;66.10
20568;DHT22;10442;49.932;11.592;2024-02-23T06:21:14;8.80;66.40
20568;DHT22;10442;49.932;11.592;2024-02-23T06:23:43;8.80;66.30
20568;DHT22;10442;49.932;11.592;2024-02-23T06:26:12;8.80;66.40
20568;DHT22;10442;49.932;11.592;2024-02-23T06:28:39;8.70;66.40
20568;DHT22;10442;49.932;11.592;2024-02-23T06:31:09;8.70;66.60
20568;DHT22;10442;49.932;11.592;2024-02-23T06:33:37;8.70;66.70
20568;DHT22;10442;49.932;11.592;2024-02-23T06:36:05;8.70;66.80
20568;DHT22;10442;49.932;11.592;2024-02-23T06:38:33;8.60;66.70
20568;DHT22;10442;49.932;11.592;2024-02-23T06:41:00;8.70;66.80
20568;DHT22;10442;49.932;11.592;2024-02-23T06:43:28;8.60;66.80
20568;DHT22;10442;49.932;11.592;2024-02-23T06:45:56;8.60;66.80
20568;DHT22;10442;49.932;11.592;2024-02-23T06:48:23;8.60;67.00
20568;DHT22;10442;49.932;11.592;2024-02-23T06:50:56;8.70;67.10
20568;DHT22;10442;49.932;11.592;2024-02-23T06:53:24;8.70;67.10
20568;DHT22;10442;49.932;11.592;2024-02-23T06:55:52;8.70;67.10
20568;DHT22;10442;49.932;11.592;2024-02-23T06:58:20;8.70;67.20
20568;DHT22;10442;49.932;11.592;2024-02-23T07:00:49;8.70;67.20
20568;DHT22;10442;49.932;11.592;2024-02-23T07:03:17;8.70;67.20
20568;DHT22;10442;49.932;11.592;2024-02-23T07:05:46;8.70;67.30
20568;DHT22;10442;49.932;11.592;2024-02-23T07:08:15;8.80;67.40
20568;DHT22;10442;49.932;11.592;2024-02-23T07:10:45;8.80;67.30
20568;DHT22;10442;49.932;11.592;2024-02-23T07:13:12;8.80;67.30
20568;DHT22;10442;49.932;11.592;2024-02-23T07:15:40;8.80;67.50
20568;DHT22;10442;49.932;11.592;2024-02-23T07:18:08;8.80;67.50
20568;DHT22;10442;49.932;11.592;2024-02-23T07:20:36;8.90;67.60
20568;DHT22;10442;49.932;11.592;2024-02-23T07:23:06;8.90;67.80
20568;DHT22;10442;49.932;11.592;2024-02-23T07:25:35;8.90;67.60
20568;DHT22;10442;49.932;11.592;2024-02-23T07:28:03;8.90;67.60
20568;DHT22;10442;49.932;11.592;2024-02-23T07:30:31;8.90;67.70
20568;DHT22;10442;49.932;11.592;2024-02-23T07:32:58;9.00;67.60
20568;DHT22;10442;49.932;11.592;2024-02-23T07:35:27;9.00;67.70
20568;DHT22;10442;49.932;11.592;2024-02-23T07:37:55;9.00;67.80
20568;DHT22;10442;49.932;11.592;2024-02-23T07:40:24;9.10;68.00
20568;DHT22;10442;49.932;11.592;2024-02-23T07:42:52;9.00;67.90
20568;DHT22;10442;49.932;11.592;2024-02-23T07:45:20;9.10;68.10
20568;DHT22;10442;49.932;11.592;2024-02-23T07:47:47;9.10;68.90
20568;DHT22;10442;49.932;11.592;2024-02-23T07:50:15;9.10;68.10
20568;DHT22;10442;49.932;11.592;2024-02-23T07:52:44;9.20;68.20
20568;DHT22;10442;49.932;11.592;2024-02-23T07:55:13;9.20;68.00
20568;DHT22;10442;49.932;11.592;2024-02-23T07:57:44;9.20;67.80
20568;DHT22;10442;49.932;11.592;2024-02-23T08:00:12;9.20;67.50
20568;DHT22;10442;49.932;11.592;2024-02-23T08:02:40;9.30;67.60
20568;DHT22;10442;49.932;11.592;2024-02-23T08:05:08;9.30;67.60
20568;DHT22;10442;49.932;11.592;2024-02-23T08:07:37;9.30;67.60
20568;DHT22;10442;49.932;11.592;2024-02-23T08:10:05;9.40;67.60
20568;DHT22;10442;49.932;11.592;2024-02-23T08:12:33;9.40;67.60
20568;DHT22;10442;49.932;11.592;2024-02-23T08:15:06;9.40;67.70
20568;DHT22;10442;49.932;11.592;2024-02-23T08:17:33;9.50;68.00
20568;DHT22;10442;49.932;11.592;2024-02-23T08:20:01;9.50;68.00
20568;DHT22;10442;49.932;11.592;2024-02-23T08:22:29;9.60;68.00
20568;DHT22;10442;49.932;11.592;2024-02-23T08:24:57;9.60;68.60
20568;DHT22;10442;49.932;11.592;2024-02-23T08:27:24;9.60;67.90
20568;DHT22;10442;49.932;11.592;2024-02-23T08:29:52;9.70;67.60
20568;DHT22;10442;49.932;11.592;2024-02-23T08:32:20;9.70;67.50
20568;DHT22;10442;49.932;11.592;2024-02-23T08:34:48;9.70;67.50
20568;DHT22;10442;49.932;11.592;2024-02-23T08:37:15;9.80;67.50
20568;DHT22;10442;49.932;11.592;2024-02-23T08:39:43;9.80;67.20
20568;DHT22;10442;49.932;11.592;2024-02-23T08:42:14;9.80;67.00
20568;DHT22;10442;49.932;11.592;2024-02-23T08:44:41;9.80;67.00
20568;DHT22;10442;49.932;11.592;2024-02-23T08:47:09;9.90;67.00
20568;DHT22;10442;49.932;11.592;2024-02-23T08:49:37;9.90;67.10
20568;DHT22;10442;49.932;11.592;2024-02-23T08:52:07;9.90;67.20
20568;DHT22;10442;49.932;11.592;2024-02-23T08:54:36;10.00;67.20
20568;DHT22;10442;49.932;11.592;2024-02-23T08:57:04;10.10;67.00
20568;DHT22;10442;49.932;11.592;2024-02-23T08:59:32;10.10;66.70
20568;DHT22;10442;49.932;11.592;2024-02-23T09:02:02;10.20;66.60
20568;DHT22;10442;49.932;11.592;2024-02-23T09:04:30;10.20;66.50
20568;DHT22;10442;49.932;11.592;2024-02-23T09:06:58;10.30;66.60
20568;DHT22;10442;49.932;11.592;2024-02-23T09:09:26;10.40;66.60
20568;DHT22;10442;49.932;11.592;2024-02-23T09:11:54;10.50;65.90
20568;DHT22;10442;49.932;11.592;2024-02-23T09:14:23;10.50;65.60
20568;DHT22;10442;49.932;11.592;2024-02-23T09:16:53;10.60;65.30
20568;DHT22;10442;49.932;11.592;2024-02-23T09:19:23;10.60;64.00
20568;DHT22;10442;49.932;11.592;2024-02-23T09:21:51;10.60;62.70
20568;DHT22;10442;49.932;11.592;2024-02-23T09:24:20;10.60;62.40
20568;DHT22;10442;49.932;11.592;2024-02-23T09:26:48;10.60;62.60
20568;DHT22;10442;49.932;11.592;2024-02-23T09:29:16;10.60;62.30
20568;DHT22;10442;49.932;11.592;2024-02-23T09:31:44;10.60;62.30
20568;DHT22;10442;49.932;11.592;2024-02-23T09:34:12;10.60;62.00
20568;DHT22;10442;49.932;11.592;2024-02-23T09:36:39;10.60;61.50
20568;DHT22;10442;49.932;11.592;2024-02-23T09:39:07;10.60;61.20
20568;DHT22;10442;49.932;11.592;2024-02-23T09:41:35;10.60;61.30
20568;DHT22;10442;49.932;11.592;2024-02-23T09:44:04;10.70;61.60
20568;DHT22;10442;49.932;11.592;2024-02-23T09:46:31;10.70;61.70
20568;DHT22;10442;49.932;11.592;2024-02-23T09:49:02;10.80;61.60
20568;DHT22;10442;49.932;11.592;2024-02-23T09:51:31;10.80;60.90
20568;DHT22;10442;49.932;11.592;2024-02-23T09:54:01;10.80;61.00
20568;DHT22;10442;49.932;11.592;2024-02-23T09:56:31;10.70;60.60
20568;DHT22;10442;49.932;11.592;2024-02-23T09:59:01;10.70;60.20
20568;DHT22;10442;49.932;11.592;2024-02-23T10:01:32;10.70;60.70
20568;DHT22;10442;49.932;11.592;2024-02-23T10:04:01;10.70;60.30
20568;DHT22;10442;49.932;11.592;2024-02-23T10:06:33;10.70;60.30
20568;DHT22;10442;49.932;11.592;2024-02-23T10:09:01;10.70;60.40
20568;DHT22;10442;49.932;11.592;2024-02-23T10:11:31;10.70;60.30
20568;DHT22;10442;49.932;11.592;2024-02-23T10:14:00;10.70;59.90
20568;DHT22;10442;49.932;11.592;2024-02-23T10:16:28;10.70;60.30
20568;DHT22;10442;49.932;11.592;2024-02-23T10:18:57;10.80;59.70
20568;DHT22;10442;49.932;11.592;2024-02-23T10:21:25;10.80;59.70
20568;DHT22;10442;49.932;11.592;2024-02-23T10:23:53;10.80;58.90
20568;DHT22;10442;49.932;11.592;2024-02-23T10:26:22;10.70;58.80
20568;DHT22;10442;49.932;11.592;2024-02-23T10:28:51;10.80;58.80
20568;DHT22;10442;49.932;11.592;2024-02-23T10:31:19;10.80;58.50
20568;DHT22;10442;49.932;11.592;2024-02-23T10:33:50;10.70;58.10
20568;DHT22;10442;49.932;11.592;2024-02-23T10:36:20;10.70;58.20
20568;DHT22;10442;49.932;11.592;2024-02-23T10:38:52;10.70;58.20
20568;DHT22;10442;49.932;11.592;2024-02-23T10:41:22;10.70;58.40
20568;DHT22;10442;49.932;11.592;2024-02-23T10:43:51;10.70;58.50
20568;DHT22;10442;49.932;11.592;2024-02-23T10:46:20;10.60;57.80
20568;DHT22;10442;49.932;11.592;2024-02-23T10:48:49;10.60;58.10
20568;DHT22;10442;49.932;11.592;2024-02-23T10:51:17;10.60;58.00
20568;DHT22;10442;49.932;11.592;2024-02-23T10:53:52;10.60;57.40
20568;DHT22;10442;49.932;11.592;2024-02-23T10:56:20;10.60;57.60
20568;DHT22;10442;49.932;11.592;2024-02-23T10:58:50;10.70;57.70
20568;DHT22;10442;49.932;11.592;2024-02-23T11:01:19;10.70;57.80
20568;DHT22;10442;49.932;11.592;2024-02-23T11:03:48;10.70;57.80
20568;DHT22;10442;49.932;11.592;2024-02-23T11:06:19;10.80;57.20
20568;DHT22;10442;49.932;11.592;2024-02-23T11:08:49;10.70;57.40
20568;DHT22;10442;49.932;11.592;2024-02-23T11:11:18;10.80;57.70
20568;DHT22;10442;49.932;11.592;2024-02-23T11:13:46;10.80;57.40
20568;DHT22;10442;49.932;11.592;2024-02-23T11:16:25;10.80;57.80
20568;DHT22;10442;49.932;11.592;2024-02-23T11:19:06;10.90;57.70
20568;DHT22;10442;49.932;11.592;2024-02-23T11:21:37;10.90;57.10
20568;DHT22;10442;49.932;11.592;2024-02-23T11:24:06;10.90;57.50
20568;DHT22;10442;49.932;11.592;2024-02-23T11:26:37;10.90;57.70
20568;DHT22;10442;49.932;11.592;2024-02-23T11:29:11;10.90;57.60
20568;DHT22;10442;49.932;11.592;2024-02-23T11:31:45;11.00;57.60
20568;DHT22;10442;49.932;11.592;2024-02-23T11:34:22;10.90;57.40
20568;DHT22;10442;49.932;11.592;2024-02-23T11:36:51;11.00;57.70
20568;DHT22;10442;49.932;11.592;2024-02-23T11:39:20;11.00;57.30
20568;DHT22;10442;49.932;11.592;2024-02-23T11:41:49;10.90;57.30
20568;DHT22;10442;49.932;11.592;2024-02-23T11:44:17;11.00;57.50
20568;DHT22;10442;49.932;11.592;2024-02-23T11:46:46;10.90;57.30
20568;DHT22;10442;49.932;11.592;2024-02-23T11:49:14;10.90;57.30
20568;DHT22;10442;49.932;11.592;2024-02-23T11:51:43;11.00;57.60
20568;DHT22;10442;49.932;11.592;2024-02-23T11:54:12;11.00;57.40
20568;DHT22;10442;49.932;11.592;2024-02-23T11:56:41;11.10;57.10
20568;DHT22;10442;49.932;11.592;2024-02-23T11:59:09;11.10;57.00
20568;DHT22;10442;49.932;11.592;2024-02-23T12:01:38;11.10;56.80
20568;DHT22;10442;49.932;11.592;2024-02-23T12:04:06;11.10;56.90
20568;DHT22;10442;49.932;11.592;2024-02-23T12:06:36;11.20;56.70
20568;DHT22;10442;49.932;11.592;2024-02-23T12:09:03;11.20;56.80
20568;DHT22;10442;49.932;11.592;2024-02-23T12:11:32;11.20;56.50
20568;DHT22;10442;49.932;11.592;2024-02-23T12:14:00;11.20;56.60
20568;DHT22;10442;49.932;11.592;2024-02-23T12:16:36;11.20;56.80
20568;DHT22;10442;49.932;11.592;2024-02-23T12:19:04;11.10;56.70
20568;DHT22;10442;49.932;11.592;2024-02-23T12:21:34;11.10;56.60
20568;DHT22;10442;49.932;11.592;2024-02-23T12:24:05;11.10;57.00
20568;DHT22;10442;49.932;11.592;2024-02-23T12:26:35;11.10;57.30
20568;DHT22;10442;49.932;11.592;2024-02-23T12:29:05;11.10;57.30
20568;DHT22;10442;49.932;11.592;2024-02-23T12:31:33;11.10;56.80
20568;DHT22;10442;49.932;11.592;2024-02-23T12:34:01;11.10;56.60
20568;DHT22;10442;49.932;11.592;2024-02-23T12:36:29;11.20;56.40
20568;DHT22;10442;49.932;11.592;2024-02-23T12:39:02;11.20;55.70
20568;DHT22;10442;49.932;11.592;2024-02-23T12:41:29;11.20;55.90
20568;DHT22;10442;49.932;11.592;2024-02-23T12:43:58;11.20;55.80
20568;DHT22;10442;49.932;11.592;2024-02-23T12:46:26;11.20;55.80
20568;DHT22;10442;49.932;11.592;2024-02-23T12:48:55;11.20;55.70
20568;DHT22;10442;49.932;11.592;2024-02-23T12:51:25;11.20;55.60
20568;DHT22;10442;49.932;11.592;2024-02-23T12:53:53;11.20;55.90
20568;DHT22;10442;49.932;11.592;2024-02-23T12:56:21;11.20;55.70
20568;DHT22;10442;49.932;11.592;2024-02-23T12:58:49;11.20;55.70
20568;DHT22;10442;49.932;11.592;2024-02-23T13:01:17;11.30;55.80
20568;DHT22;10442;49.932;11.592;2024-02-23T13:03:44;11.30;55.40
20568;DHT22;10442;49.932;11.592;2024-02-23T13:06:12;11.30;55.50
20568;DHT22;10442;49.932;11.592;2024-02-23T13:08:42;11.30;55.80
20568;DHT22;10442;49.932;11.592;2024-02-23T13:11:11;11.30;55.80
20568;DHT22;10442;49.932;11.592;2024-02-23T13:13:39;11.20;55.30
20568;DHT22;10442;49.932;11.592;2024-02-23T13:16:10;11.20;55.00
20568;DHT22;10442;49.932;11.592;2024-02-23T13:18:38;11.20;54.80
20568;DHT22;10442;49.932;11.592;2024-02-23T13:21:07;11.20;55.10
20568;DHT22;10442;49.932;11.592;2024-02-23T13:23:35;11.10;54.90
20568;DHT22;10442;49.932;11.592;2024-02-23T13:26:04;11.10;54.80
20568;DHT22;10442;49.932;11.592;2024-02-23T13:28:32;11.00;55.00
20568;DHT22;10442;49.932;11.592;2024-02-23T13:31:00;11.10;55.10
20568;DHT22;10442;49.932;11.592;2024-02-23T13:33:28;11.00;54.50
20568;DHT22;10442;49.932;11.592;2024-02-23T13:35:56;11.00;54.70
20568;DHT22;10442;49.932;11.592;2024-02-23T13:38:24;11.00;54.90
20568;DHT22;10442;49.932;11.592;2024-02-23T13:40:51;11.00;55.30
20568;DHT22;10442;49.932;11.592;2024-02-23T13:43:19;11.00;54.90
20568;DHT22;10442;49.932;11.592;2024-02-23T13:45:51;11.00;55.20
20568;DHT22;10442;49.932;11.592;2024-02-23T13:48:21;11.00;54.70
20568;DHT22;10442;49.932;11.592;2024-02-23T13:50:50;11.00;54.90
20568;DHT22;10442;49.932;11.592;2024-02-23T13:53:18;11.10;55.00
20568;DHT22;10442;49.932;11.592;2024-02-23T13:55:46;11.10;55.30
20568;DHT22;10442;49.932;11.592;2024-02-23T13:58:14;11.10;55.30
20568;DHT22;10442;49.932;11.592;2024-02-23T14:00:41;11.10;55.30
20568;DHT22;10442;49.932;11.592;2024-02-23T14:03:12;11.20;55.30
20568;DHT22;10442;49.932;11.592;2024-02-23T14:05:45;11.20;55.00
20568;DHT22;10442;49.932;11.592;2024-02-23T14:08:14;11.20;54.80
20568;DHT22;10442;49.932;11.592;2024-02-23T14:10:42;11.10;54.90
20568;DHT22;10442;49.932;11.592;2024-02-23T14:13:11;11.10;54.80
20568;DHT22;10442;49.932;11.592;2024-02-23T14:15:41;11.20;55.00
20568;DHT22;10442;49.932;11.592;2024-02-23T14:18:08;11.10;55.10
20568;DHT22;10442;49.932;11.592;2024-02-23T14:20:36;11.20;55.80
20568;DHT22;10442;49.932;11.592;2024-02-23T14:23:04;11.10;55.80
20568;DHT22;10442;49.932;11.592;2024-02-23T14:25:31;11.10;55.80
20568;DHT22;10442;49.932;11.592;2024-02-23T14:27:58;11.20;55.80
20568;DHT22;10442;49.932;11.592;2024-02-23T14:30:26;11.20;55.80
20568;DHT22;10442;49.932;11.592;2024-02-23T14:32:54;11.20;55.60
20568;DHT22;10442;49.932;11.592;2024-02-23T14:35:22;11.20;55.90
20568;DHT22;10442;49.932;11.592;2024-02-23T14:37:50;11.20;56.50
20568;DHT22;10442;49.932;11.592;2024-02-23T14:40:17;11.20;56.20
20568;DHT22;10442;49.932;11.592;2024-02-23T14:42:45;11.20;56.20
20568;DHT22;10442;49.932;11.592;2024-02-23T14:45:13;11.20;56.50
20568;DHT22;10442;49.932;11.592;2024-02-23T14:47:43;11.20;56.70
20568;DHT22;10442;49.932;11.592;2024-02-23T14:50:13;11.20;56.70
20568;DHT22;10442;49.932;11.592;2024-02-23T14:52:41;11.20;56.80
20568;DHT22;10442;49.932;11.592;2024-02-23T14:55:11;11.20;56.70
20568;DHT22;10442;49.932;11.592;2024-02-23T14:57:41;11.10;56.70
20568;DHT22;10442;49.932;11.592;2024-02-23T15:00:09;11.10;56.70
20568;DHT22;10442;49.932;11.592;2024-02-23T15:02:37;11.10;57.00
20568;DHT22;10442;49.932;11.592;2024-02-23T15:05:05;11.10;57.20
20568;DHT22;10442;49.932;11.592;2024-02-23T15:07:33;11.10;57.50
20568;DHT22;10442;49.932;11.592;2024-02-23T15:10:02;11.00;57.30
20568;DHT22;10442;49.932;11.592;2024-02-23T15:12:36;11.00;57.20
20568;DHT22;10442;49.932;11.592;2024-02-23T15:15:06;11.00;57.30
20568;DHT22;10442;49.932;11.592;2024-02-23T15:17:36;11.00;57.40
20568;DHT22;10442;49.932;11.592;2024-02-23T15:20:05;10.90;57.50
20568;DHT22;10442;49.932;11.592;2024-02-23T15:22:34;10.90;57.70
20568;DHT22;10442;49.932;11.592;2024-02-23T15:25:01;10.90;57.70
20568;DHT22;10442;49.932;11.592;2024-02-23T15:27:36;10.80;57.70